Hasabi II — ZCPG3 — position and weather

sailwx.info

Track history (hours):
 
Tides and Currents Weather Stations Pressure Air Temp Water Temp Dewpoint Dewpoint Depression Visibility Wind Speed Wind Dir Waves Ship Positions

Hasabi II

Last reported at 2018-Jun-16 16:43 UTC. Time now 2018-Jun-18 02:13 UTC.
Position N 37°58' E 023°34'.

Length 58 m; draft 4 m.

Type: Ship (hazmat cat C). MMSI: 319022000.

Date/timePositionNaut miles runAvg speedWind from/ knotsBaromVisibWave heightAir tempDewpointWater temp
2018-Jun-16 16:43N 37°58' E 023°34'0 0.0
2018-Jun-16 16:31N 37°58' E 023°34'0 0.0
2018-Jun-16 16:00N 37°58' E 023°34'0 0.0
2018-Jun-16 15:30N 37°58' E 023°34'0 0.0
2018-Jun-16 15:01N 37°58' E 023°34'0 0.0
2018-Jun-16 14:31N 37°58' E 023°34'0 0.0
2018-Jun-16 14:01N 37°58' E 023°34'0 0.0
2018-Jun-16 13:31N 37°58' E 023°34'0 0.0
2018-Jun-16 13:00N 37°58' E 023°34'0 0.0
2018-Jun-16 12:30N 37°58' E 023°34'0 0.0
2018-Jun-16 12:00N 37°58' E 023°34'0 0.0
2018-Jun-16 11:31N 37°58' E 023°34'0 0.0
2018-Jun-16 11:00N 37°58' E 023°34'0 0.0
2018-Jun-16 10:30N 37°58' E 023°34'0 0.0
2018-Jun-16 10:01N 37°58' E 023°34'0 0.0
2018-Jun-16 09:30N 37°58' E 023°34'0 0.0
2018-Jun-16 09:01N 37°58' E 023°34'0 0.0
2018-Jun-16 08:31N 37°58' E 023°34'0 0.0
2018-Jun-16 08:00N 37°58' E 023°34'0 0.0
2018-Jun-16 07:31N 37°58' E 023°34'0 0.0
2018-Jun-16 07:00N 37°58' E 023°34'0 0.0
2018-Jun-16 06:30N 37°58' E 023°34'0 0.7
2018-Jun-16 06:00N 37°57' E 023°35'2 4.5
2018-Jun-16 05:31N 37°55' E 023°35'4 7.8
2018-Jun-16 05:01N 37°51' E 023°35'510.3
2018-Jun-16 04:31N 37°46' E 023°35'12 9.9
2018-Jun-16 03:18N 37°35' E 023°29'5 0.3
2018-Jun-15 07:44N 37°31' E 023°26'0 0.1
2018-Jun-15 07:30N 37°31' E 023°26'62 8.6
2018-Jun-15 00:19N 37°32' E 024°44'3 9.9
2018-Jun-14 23:59N 37°32' E 024°48'14 9.6
2018-Jun-14 22:34N 37°26' E 025°04'210.7
2018-Jun-14 22:23N 37°25' E 025°05'410.5
2018-Jun-14 21:59N 37°22' E 025°10'510.2
2018-Jun-14 21:30N 37°21' E 025°16'4 8.7
2018-Jun-14 21:00N 37°25' E 025°19'0 0.1
2018-Jun-14 20:30N 37°25' E 025°19'0 0.0
2018-Jun-14 20:00N 37°25' E 025°19'0 0.0
2018-Jun-14 18:56N 37°25' E 025°19'0 0.0
2018-Jun-14 18:31N 37°25' E 025°19'0 0.0
2018-Jun-14 18:00N 37°25' E 025°19'0 0.0
2018-Jun-14 17:30N 37°25' E 025°19'0 0.0
2018-Jun-14 17:00N 37°25' E 025°19'0 0.0
2018-Jun-14 16:30N 37°25' E 025°19'0 0.0
2018-Jun-14 16:00N 37°25' E 025°19'0 0.0
2018-Jun-14 15:30N 37°25' E 025°19'0 0.0
2018-Jun-14 15:00N 37°25' E 025°19'0 0.0
2018-Jun-14 14:30N 37°25' E 025°19'0 0.1
2018-Jun-14 14:00N 37°25' E 025°19'0 0.0
2018-Jun-14 13:31N 37°25' E 025°19'0 0.0
2018-Jun-14 12:58N 37°25' E 025°19'0 0.0
2018-Jun-14 12:30N 37°25' E 025°19'0 0.0
2018-Jun-14 12:01N 37°25' E 025°19'0 0.0
2018-Jun-14 11:30N 37°25' E 025°19'0 0.0
2018-Jun-14 11:01N 37°25' E 025°19'0 0.0
2018-Jun-14 10:28N 37°25' E 025°19'0 0.0
2018-Jun-14 09:59N 37°25' E 025°19'0 0.0
2018-Jun-14 09:30N 37°25' E 025°19'0 0.0
2018-Jun-14 08:55N 37°25' E 025°19'0 0.0
2018-Jun-14 08:31N 37°25' E 025°19'0 0.0
2018-Jun-14 08:01N 37°25' E 025°19'0 0.0
2018-Jun-14 07:31N 37°25' E 025°19'0 0.0
2018-Jun-14 07:00N 37°25' E 025°19'0 0.0
2018-Jun-14 06:29N 37°25' E 025°19'0 0.0
2018-Jun-14 06:00N 37°25' E 025°19'0 0.0
2018-Jun-14 05:30N 37°25' E 025°19'0 0.0
2018-Jun-14 05:00N 37°25' E 025°19'0 0.0
2018-Jun-14 04:30N 37°25' E 025°19'0 0.2
2018-Jun-14 03:59N 37°25' E 025°19'3 5.2
2018-Jun-14 03:28N 37°27' E 025°18'  
2018-Jun-10 17:45N 37°27' E 025°20'0 0.0
2018-Jun-10 10:28N 37°27' E 025°20'3 7.0
2018-Jun-10 10:00N 37°24' E 025°17'2 3.6
2018-Jun-10 09:31N 37°23' E 025°16'0 0.1
2018-Jun-10 09:00N 37°23' E 025°16'0 0.0
2018-Jun-10 08:31N 37°23' E 025°16'0 0.1
2018-Jun-10 08:00N 37°23' E 025°16'0 0.0
2018-Jun-10 07:30N 37°23' E 025°16'0 0.0
2018-Jun-10 07:00N 37°23' E 025°16'0 0.0
2018-Jun-10 06:30N 37°23' E 025°16'0 0.5
2018-Jun-10 05:59N 37°23' E 025°15'3 5.8
2018-Jun-10 05:31N 37°23' E 025°19'2 3.1
2018-Jun-10 05:01N 37°25' E 025°20'0 0.0
2018-Jun-10 04:30N 37°25' E 025°20'0 0.1
2018-Jun-10 04:01N 37°25' E 025°20'0 0.0
2018-Jun-10 03:31N 37°25' E 025°20'0 0.0
2018-Jun-10 03:00N 37°25' E 025°20'0 0.0
2018-Jun-10 02:31N 37°25' E 025°20'0 0.0
2018-Jun-10 02:01N 37°25' E 025°20'0 0.0
2018-Jun-10 01:30N 37°25' E 025°20'0 0.0
2018-Jun-10 01:00N 37°25' E 025°20'0 0.0
2018-Jun-10 00:30N 37°25' E 025°20'0 0.0
2018-Jun-10 00:00N 37°25' E 025°20'0 0.0
2018-Jun-09 23:29N 37°25' E 025°20'0 0.0
2018-Jun-09 23:00N 37°25' E 025°20'0 0.0
2018-Jun-09 22:30N 37°25' E 025°19'0 0.0
2018-Jun-09 22:00N 37°25' E 025°20'0 0.0
2018-Jun-09 21:30N 37°25' E 025°20'0 0.0
2018-Jun-09 21:00N 37°25' E 025°20'0 0.0
2018-Jun-09 20:30N 37°25' E 025°20'0 0.0
2018-Jun-09 20:01N 37°25' E 025°20'0 0.0
2018-Jun-09 19:29N 37°25' E 025°20'0 0.0
2018-Jun-09 18:59N 37°25' E 025°20'0 0.0
2018-Jun-09 18:29N 37°25' E 025°20'0 0.0
2018-Jun-09 18:00N 37°25' E 025°20'0 0.0
2018-Jun-09 17:30N 37°25' E 025°20'0 0.0
2018-Jun-09 17:00N 37°25' E 025°20'0 0.0
2018-Jun-09 16:30N 37°25' E 025°20'0 0.0
2018-Jun-09 15:56N 37°25' E 025°20'0 0.0
2018-Jun-09 15:30N 37°25' E 025°20'0 0.0
2018-Jun-09 14:30N 37°25' E 025°20'0 0.1
2018-Jun-09 14:00N 37°25' E 025°20'0 0.1
2018-Jun-09 13:30N 37°25' E 025°20'0 0.0
2018-Jun-09 12:59N 37°25' E 025°19'0 0.0
2018-Jun-09 12:30N 37°25' E 025°20'0 0.0
2018-Jun-09 12:00N 37°25' E 025°20'0 0.0
2018-Jun-09 11:30N 37°25' E 025°20'0 0.1
2018-Jun-09 11:00N 37°25' E 025°19'0 0.0
2018-Jun-09 10:30N 37°25' E 025°19'0 0.0
2018-Jun-09 10:00N 37°25' E 025°19'0 0.0
2018-Jun-09 09:30N 37°25' E 025°19'0 0.0
2018-Jun-09 09:00N 37°25' E 025°19'0 0.0
2018-Jun-09 08:30N 37°25' E 025°19'0 0.0
2018-Jun-09 08:00N 37°25' E 025°19'0 0.0
2018-Jun-09 07:28N 37°25' E 025°19'0 0.0
2018-Jun-09 07:00N 37°25' E 025°19'0 0.0
2018-Jun-09 06:30N 37°25' E 025°19'0 0.0
2018-Jun-09 06:00N 37°25' E 025°20'0 0.0
2018-Jun-09 05:30N 37°25' E 025°20'0 0.0
2018-Jun-08 09:49N 37°25' E 025°20'0 0.0
2018-Jun-08 09:30N 37°25' E 025°20'0 0.1
2018-Jun-08 09:01N 37°25' E 025°19'0 0.0
2018-Jun-08 08:29N 37°25' E 025°19'0 0.1
2018-Jun-08 08:01N 37°25' E 025°20'0 0.1
2018-Jun-08 07:31N 37°25' E 025°19'0 0.0
2018-Jun-08 07:01N 37°25' E 025°19'0 0.0
2018-Jun-08 06:29N 37°25' E 025°19'0 0.0
2018-Jun-08 06:00N 37°25' E 025°20'0 0.1
2018-Jun-08 05:30N 37°25' E 025°19'0 0.1
2018-Jun-08 05:00N 37°25' E 025°20'0 0.1
2018-Jun-08 04:31N 37°25' E 025°19'0 0.0
2018-Jun-08 04:00N 37°25' E 025°19'0 0.0
2018-Jun-08 03:29N 37°25' E 025°19'0 0.0
2018-Jun-08 03:00N 37°25' E 025°19'0 0.1
2018-Jun-08 02:30N 37°25' E 025°19'0 0.0
2018-Jun-08 02:00N 37°25' E 025°19'0 0.0
2018-Jun-08 01:25N 37°25' E 025°19'0 0.0
2018-Jun-08 01:01N 37°25' E 025°19'0 0.0
2018-Jun-08 00:30N 37°25' E 025°19'0 0.0
2018-Jun-08 00:00N 37°25' E 025°19'0 0.0
2018-Jun-07 23:29N 37°25' E 025°19'0 0.0
2018-Jun-07 23:00N 37°25' E 025°19'0 0.0
2018-Jun-07 22:30N 37°25' E 025°19'0 0.0
2018-Jun-07 22:01N 37°25' E 025°19'0 0.0
2018-Jun-07 21:30N 37°25' E 025°19'0 0.0
2018-Jun-07 21:01N 37°25' E 025°19'0 0.0
2018-Jun-07 20:30N 37°25' E 025°19'0 0.0
2018-Jun-07 20:01N 37°25' E 025°19'0 0.0
2018-Jun-07 19:30N 37°25' E 025°19'0 0.0
2018-Jun-07 19:00N 37°25' E 025°19'0 0.0
2018-Jun-07 18:30N 37°25' E 025°19'0 0.0
2018-Jun-07 18:01N 37°25' E 025°19'0 0.1
2018-Jun-07 17:31N 37°25' E 025°19'0 0.0
2018-Jun-07 16:59N 37°25' E 025°19'0 0.0
2018-Jun-07 16:29N 37°25' E 025°19'0 0.1
2018-Jun-07 15:59N 37°25' E 025°19'0 0.0
2018-Jun-07 15:31N 37°25' E 025°19'0 0.0
2018-Jun-07 15:01N 37°25' E 025°19'0 0.0
2018-Jun-07 14:30N 37°25' E 025°19'0 0.0
2018-Jun-07 14:00N 37°25' E 025°19'0 0.0
2018-Jun-07 13:30N 37°25' E 025°19'0 0.0
2018-Jun-07 12:58N 37°25' E 025°19'0 0.1
2018-Jun-07 12:30N 37°25' E 025°19'0 0.1
2018-Jun-07 12:00N 37°25' E 025°19'0 0.0
2018-Jun-07 11:30N 37°25' E 025°19'0 0.0
2018-Jun-07 11:01N 37°25' E 025°19'0 0.0
2018-Jun-07 10:30N 37°25' E 025°19'0 0.0
2018-Jun-07 10:00N 37°25' E 025°19'0 0.0
2018-Jun-07 09:30N 37°25' E 025°19'0 0.0
2018-Jun-07 08:59N 37°25' E 025°19'0 0.0
2018-Jun-07 08:29N 37°25' E 025°19'0 0.0
2018-Jun-07 08:01N 37°25' E 025°19'0 0.0
2018-Jun-07 07:30N 37°25' E 025°19'0 0.0
2018-Jun-07 07:00N 37°25' E 025°19'0 0.0
2018-Jun-07 06:30N 37°25' E 025°19'0 0.0
2018-Jun-07 06:00N 37°25' E 025°19'0 0.0
2018-Jun-07 05:31N 37°25' E 025°19'0 0.0
2018-Jun-07 05:00N 37°25' E 025°19'0 0.0
2018-Jun-07 04:30N 37°25' E 025°19'0 0.0
2018-Jun-07 03:57N 37°25' E 025°19'0 0.0
2018-Jun-07 03:30N 37°25' E 025°19'0 0.0
2018-Jun-07 03:00N 37°25' E 025°19'0 0.0
2018-Jun-07 02:30N 37°25' E 025°19'0 0.0
2018-Jun-07 02:00N 37°25' E 025°19'0 0.0
2018-Jun-07 01:30N 37°25' E 025°19'0 0.0
2018-Jun-07 01:00N 37°25' E 025°19'0 0.0
2018-Jun-07 00:30N 37°25' E 025°19'0 0.0
2018-Jun-07 00:00N 37°25' E 025°19'0 0.0
2018-Jun-06 23:30N 37°25' E 025°19'0 0.0
2018-Jun-06 23:00N 37°25' E 025°19'0 0.0
2018-Jun-06 22:31N 37°25' E 025°19'0 0.0
2018-Jun-06 22:00N 37°25' E 025°19'0 0.1
2018-Jun-06 21:30N 37°25' E 025°19'4 7.9
2018-Jun-06 21:00N 37°21' E 025°17'5 9.4
2018-Jun-06 20:31N 37°20' E 025°12'8 9.3
2018-Jun-06 19:40N 37°18' E 025°02'2 9.5
2018-Jun-06 19:30N 37°17' E 025°00'5 9.7
2018-Jun-06 19:00N 37°16' E 024°54'5 9.8
2018-Jun-06 18:30N 37°15' E 024°49'  
Track history (hours):
 
Tides and Currents Weather Stations Pressure Air Temp Water Temp Dewpoint Dewpoint Depression Visibility Wind Speed Wind Dir Waves Ship Positions

Hasabi II

Last reported at 2018-Jun-16 16:43 UTC. Time now 2018-Jun-18 02:13 UTC.
Position N 37°58' E 023°34'.

Length 58 m; draft 4 m.

Type: Ship (hazmat cat C). MMSI: 319022000.

Date/timePositionNaut miles runAvg speedWind from/ knotsBaromVisibWave heightAir tempDewpointWater temp
2018-Jun-16 16:43N 37°58' E 023°34'0 0.0
2018-Jun-16 16:31N 37°58' E 023°34'0 0.0
2018-Jun-16 16:00N 37°58' E 023°34'0 0.0
2018-Jun-16 15:30N 37°58' E 023°34'0 0.0
2018-Jun-16 15:01N 37°58' E 023°34'0 0.0
2018-Jun-16 14:31N 37°58' E 023°34'0 0.0
2018-Jun-16 14:01N 37°58' E 023°34'0 0.0
2018-Jun-16 13:31N 37°58' E 023°34'0 0.0
2018-Jun-16 13:00N 37°58' E 023°34'0 0.0
2018-Jun-16 12:30N 37°58' E 023°34'0 0.0
2018-Jun-16 12:00N 37°58' E 023°34'0 0.0
2018-Jun-16 11:31N 37°58' E 023°34'0 0.0
2018-Jun-16 11:00N 37°58' E 023°34'0 0.0
2018-Jun-16 10:30N 37°58' E 023°34'0 0.0
2018-Jun-16 10:01N 37°58' E 023°34'0 0.0
2018-Jun-16 09:30N 37°58' E 023°34'0 0.0
2018-Jun-16 09:01N 37°58' E 023°34'0 0.0
2018-Jun-16 08:31N 37°58' E 023°34'0 0.0
2018-Jun-16 08:00N 37°58' E 023°34'0 0.0
2018-Jun-16 07:31N 37°58' E 023°34'0 0.0
2018-Jun-16 07:00N 37°58' E 023°34'0 0.0
2018-Jun-16 06:30N 37°58' E 023°34'0 0.7
2018-Jun-16 06:00N 37°57' E 023°35'2 4.5
2018-Jun-16 05:31N 37°55' E 023°35'4 7.8
2018-Jun-16 05:01N 37°51' E 023°35'510.3
2018-Jun-16 04:31N 37°46' E 023°35'12 9.9
2018-Jun-16 03:18N 37°35' E 023°29'5 0.3
2018-Jun-15 07:44N 37°31' E 023°26'0 0.1
2018-Jun-15 07:30N 37°31' E 023°26'62 8.6
2018-Jun-15 00:19N 37°32' E 024°44'3 9.9
2018-Jun-14 23:59N 37°32' E 024°48'14 9.6
2018-Jun-14 22:34N 37°26' E 025°04'210.7
2018-Jun-14 22:23N 37°25' E 025°05'410.5
2018-Jun-14 21:59N 37°22' E 025°10'510.2
2018-Jun-14 21:30N 37°21' E 025°16'4 8.7
2018-Jun-14 21:00N 37°25' E 025°19'0 0.1
2018-Jun-14 20:30N 37°25' E 025°19'0 0.0
2018-Jun-14 20:00N 37°25' E 025°19'0 0.0
2018-Jun-14 18:56N 37°25' E 025°19'0 0.0
2018-Jun-14 18:31N 37°25' E 025°19'0 0.0
2018-Jun-14 18:00N 37°25' E 025°19'0 0.0
2018-Jun-14 17:30N 37°25' E 025°19'0 0.0
2018-Jun-14 17:00N 37°25' E 025°19'0 0.0
2018-Jun-14 16:30N 37°25' E 025°19'0 0.0
2018-Jun-14 16:00N 37°25' E 025°19'0 0.0
2018-Jun-14 15:30N 37°25' E 025°19'0 0.0
2018-Jun-14 15:00N 37°25' E 025°19'0 0.0
2018-Jun-14 14:30N 37°25' E 025°19'0 0.1
2018-Jun-14 14:00N 37°25' E 025°19'0 0.0
2018-Jun-14 13:31N 37°25' E 025°19'0 0.0
2018-Jun-14 12:58N 37°25' E 025°19'0 0.0
2018-Jun-14 12:30N 37°25' E 025°19'0 0.0
2018-Jun-14 12:01N 37°25' E 025°19'0 0.0
2018-Jun-14 11:30N 37°25' E 025°19'0 0.0
2018-Jun-14 11:01N 37°25' E 025°19'0 0.0
2018-Jun-14 10:28N 37°25' E 025°19'0 0.0
2018-Jun-14 09:59N 37°25' E 025°19'0 0.0
2018-Jun-14 09:30N 37°25' E 025°19'0 0.0
2018-Jun-14 08:55N 37°25' E 025°19'0 0.0
2018-Jun-14 08:31N 37°25' E 025°19'0 0.0
2018-Jun-14 08:01N 37°25' E 025°19'0 0.0
2018-Jun-14 07:31N 37°25' E 025°19'0 0.0
2018-Jun-14 07:00N 37°25' E 025°19'0 0.0
2018-Jun-14 06:29N 37°25' E 025°19'0 0.0
2018-Jun-14 06:00N 37°25' E 025°19'0 0.0
2018-Jun-14 05:30N 37°25' E 025°19'0 0.0
2018-Jun-14 05:00N 37°25' E 025°19'0 0.0
2018-Jun-14 04:30N 37°25' E 025°19'0 0.2
2018-Jun-14 03:59N 37°25' E 025°19'3 5.2
2018-Jun-14 03:28N 37°27' E 025°18'  
2018-Jun-10 17:45N 37°27' E 025°20'0 0.0
2018-Jun-10 10:28N 37°27' E 025°20'3 7.0
2018-Jun-10 10:00N 37°24' E 025°17'2 3.6
2018-Jun-10 09:31N 37°23' E 025°16'0 0.1
2018-Jun-10 09:00N 37°23' E 025°16'0 0.0
2018-Jun-10 08:31N 37°23' E 025°16'0 0.1
2018-Jun-10 08:00N 37°23' E 025°16'0 0.0
2018-Jun-10 07:30N 37°23' E 025°16'0 0.0
2018-Jun-10 07:00N 37°23' E 025°16'0 0.0
2018-Jun-10 06:30N 37°23' E 025°16'0 0.5
2018-Jun-10 05:59N 37°23' E 025°15'3 5.8
2018-Jun-10 05:31N 37°23' E 025°19'2 3.1
2018-Jun-10 05:01N 37°25' E 025°20'0 0.0
2018-Jun-10 04:30N 37°25' E 025°20'0 0.1
2018-Jun-10 04:01N 37°25' E 025°20'0 0.0
2018-Jun-10 03:31N 37°25' E 025°20'0 0.0
2018-Jun-10 03:00N 37°25' E 025°20'0 0.0
2018-Jun-10 02:31N 37°25' E 025°20'0 0.0
2018-Jun-10 02:01N 37°25' E 025°20'0 0.0
2018-Jun-10 01:30N 37°25' E 025°20'0 0.0
2018-Jun-10 01:00N 37°25' E 025°20'0 0.0
2018-Jun-10 00:30N 37°25' E 025°20'0 0.0
2018-Jun-10 00:00N 37°25' E 025°20'0 0.0
2018-Jun-09 23:29N 37°25' E 025°20'0 0.0
2018-Jun-09 23:00N 37°25' E 025°20'0 0.0
2018-Jun-09 22:30N 37°25' E 025°19'0 0.0
2018-Jun-09 22:00N 37°25' E 025°20'0 0.0
2018-Jun-09 21:30N 37°25' E 025°20'0 0.0
2018-Jun-09 21:00N 37°25' E 025°20'0 0.0
2018-Jun-09 20:30N 37°25' E 025°20'0 0.0
2018-Jun-09 20:01N 37°25' E 025°20'0 0.0
2018-Jun-09 19:29N 37°25' E 025°20'0 0.0
2018-Jun-09 18:59N 37°25' E 025°20'0 0.0
2018-Jun-09 18:29N 37°25' E 025°20'0 0.0
2018-Jun-09 18:00N 37°25' E 025°20'0 0.0
2018-Jun-09 17:30N 37°25' E 025°20'0 0.0
2018-Jun-09 17:00N 37°25' E 025°20'0 0.0
2018-Jun-09 16:30N 37°25' E 025°20'0 0.0
2018-Jun-09 15:56N 37°25' E 025°20'0 0.0
2018-Jun-09 15:30N 37°25' E 025°20'0 0.0
2018-Jun-09 14:30N 37°25' E 025°20'0 0.1
2018-Jun-09 14:00N 37°25' E 025°20'0 0.1
2018-Jun-09 13:30N 37°25' E 025°20'0 0.0
2018-Jun-09 12:59N 37°25' E 025°19'0 0.0
2018-Jun-09 12:30N 37°25' E 025°20'0 0.0
2018-Jun-09 12:00N 37°25' E 025°20'0 0.0
2018-Jun-09 11:30N 37°25' E 025°20'0 0.1
2018-Jun-09 11:00N 37°25' E 025°19'0 0.0
2018-Jun-09 10:30N 37°25' E 025°19'0 0.0
2018-Jun-09 10:00N 37°25' E 025°19'0 0.0
2018-Jun-09 09:30N 37°25' E 025°19'0 0.0
2018-Jun-09 09:00N 37°25' E 025°19'0 0.0
2018-Jun-09 08:30N 37°25' E 025°19'0 0.0
2018-Jun-09 08:00N 37°25' E 025°19'0 0.0
2018-Jun-09 07:28N 37°25' E 025°19'0 0.0
2018-Jun-09 07:00N 37°25' E 025°19'0 0.0
2018-Jun-09 06:30N 37°25' E 025°19'0 0.0
2018-Jun-09 06:00N 37°25' E 025°20'0 0.0
2018-Jun-09 05:30N 37°25' E 025°20'0 0.0
2018-Jun-08 09:49N 37°25' E 025°20'0 0.0
2018-Jun-08 09:30N 37°25' E 025°20'0 0.1
2018-Jun-08 09:01N 37°25' E 025°19'0 0.0
2018-Jun-08 08:29N 37°25' E 025°19'0 0.1
2018-Jun-08 08:01N 37°25' E 025°20'0 0.1
2018-Jun-08 07:31N 37°25' E 025°19'0 0.0
2018-Jun-08 07:01N 37°25' E 025°19'0 0.0
2018-Jun-08 06:29N 37°25' E 025°19'0 0.0
2018-Jun-08 06:00N 37°25' E 025°20'0 0.1
2018-Jun-08 05:30N 37°25' E 025°19'0 0.1
2018-Jun-08 05:00N 37°25' E 025°20'0 0.1
2018-Jun-08 04:31N 37°25' E 025°19'0 0.0
2018-Jun-08 04:00N 37°25' E 025°19'0 0.0
2018-Jun-08 03:29N 37°25' E 025°19'0 0.0
2018-Jun-08 03:00N 37°25' E 025°19'0 0.1
2018-Jun-08 02:30N 37°25' E 025°19'0 0.0
2018-Jun-08 02:00N 37°25' E 025°19'0 0.0
2018-Jun-08 01:25N 37°25' E 025°19'0 0.0
2018-Jun-08 01:01N 37°25' E 025°19'0 0.0
2018-Jun-08 00:30N 37°25' E 025°19'0 0.0
2018-Jun-08 00:00N 37°25' E 025°19'0 0.0
2018-Jun-07 23:29N 37°25' E 025°19'0 0.0
2018-Jun-07 23:00N 37°25' E 025°19'0 0.0
2018-Jun-07 22:30N 37°25' E 025°19'0 0.0
2018-Jun-07 22:01N 37°25' E 025°19'0 0.0
2018-Jun-07 21:30N 37°25' E 025°19'0 0.0
2018-Jun-07 21:01N 37°25' E 025°19'0 0.0
2018-Jun-07 20:30N 37°25' E 025°19'0 0.0
2018-Jun-07 20:01N 37°25' E 025°19'0 0.0
2018-Jun-07 19:30N 37°25' E 025°19'0 0.0
2018-Jun-07 19:00N 37°25' E 025°19'0 0.0
2018-Jun-07 18:30N 37°25' E 025°19'0 0.0
2018-Jun-07 18:01N 37°25' E 025°19'0 0.1
2018-Jun-07 17:31N 37°25' E 025°19'0 0.0
2018-Jun-07 16:59N 37°25' E 025°19'0 0.0
2018-Jun-07 16:29N 37°25' E 025°19'0 0.1
2018-Jun-07 15:59N 37°25' E 025°19'0 0.0
2018-Jun-07 15:31N 37°25' E 025°19'0 0.0
2018-Jun-07 15:01N 37°25' E 025°19'0 0.0
2018-Jun-07 14:30N 37°25' E 025°19'0 0.0
2018-Jun-07 14:00N 37°25' E 025°19'0 0.0
2018-Jun-07 13:30N 37°25' E 025°19'0 0.0
2018-Jun-07 12:58N 37°25' E 025°19'0 0.1
2018-Jun-07 12:30N 37°25' E 025°19'0 0.1
2018-Jun-07 12:00N 37°25' E 025°19'0 0.0
2018-Jun-07 11:30N 37°25' E 025°19'0 0.0
2018-Jun-07 11:01N 37°25' E 025°19'0 0.0
2018-Jun-07 10:30N 37°25' E 025°19'0 0.0
2018-Jun-07 10:00N 37°25' E 025°19'0 0.0
2018-Jun-07 09:30N 37°25' E 025°19'0 0.0
2018-Jun-07 08:59N 37°25' E 025°19'0 0.0
2018-Jun-07 08:29N 37°25' E 025°19'0 0.0
2018-Jun-07 08:01N 37°25' E 025°19'0 0.0
2018-Jun-07 07:30N 37°25' E 025°19'0 0.0
2018-Jun-07 07:00N 37°25' E 025°19'0 0.0
2018-Jun-07 06:30N 37°25' E 025°19'0 0.0
2018-Jun-07 06:00N 37°25' E 025°19'0 0.0
2018-Jun-07 05:31N 37°25' E 025°19'0 0.0
2018-Jun-07 05:00N 37°25' E 025°19'0 0.0
2018-Jun-07 04:30N 37°25' E 025°19'0 0.0
2018-Jun-07 03:57N 37°25' E 025°19'0 0.0
2018-Jun-07 03:30N 37°25' E 025°19'0 0.0
2018-Jun-07 03:00N 37°25' E 025°19'0 0.0
2018-Jun-07 02:30N 37°25' E 025°19'0 0.0
2018-Jun-07 02:00N 37°25' E 025°19'0 0.0
2018-Jun-07 01:30N 37°25' E 025°19'0 0.0
2018-Jun-07 01:00N 37°25' E 025°19'0 0.0
2018-Jun-07 00:30N 37°25' E 025°19'0 0.0
2018-Jun-07 00:00N 37°25' E 025°19'0 0.0
2018-Jun-06 23:30N 37°25' E 025°19'0 0.0
2018-Jun-06 23:00N 37°25' E 025°19'0 0.0
2018-Jun-06 22:31N 37°25' E 025°19'0 0.0
2018-Jun-06 22:00N 37°25' E 025°19'0 0.1
2018-Jun-06 21:30N 37°25' E 025°19'4 7.9
2018-Jun-06 21:00N 37°21' E 025°17'5 9.4
2018-Jun-06 20:31N 37°20' E 025°12'8 9.3
2018-Jun-06 19:40N 37°18' E 025°02'2 9.5
2018-Jun-06 19:30N 37°17' E 025°00'5 9.7
2018-Jun-06 19:00N 37°16' E 024°54'5 9.8
2018-Jun-06 18:30N 37°15' E 024°49'  

Dump ship's entire track history